This is the latest recevied weather packets stored in our database for station/object GW7110. If no packets are shown the sender has not sent any weather packets the latest 1 day(s).
| Time | Temp. | Humidity | Pressure | Rain* | Wind** | Luminosity | Snow |
|---|---|---|---|---|---|---|---|
| 1778106247 | 18.33° C | 95% | 29.9 hPa | 11.18 mm | - | 41 W/m² | - |
| 1778102947 | 18.89° C | 94% | 29.9 hPa | 4.06 mm | - | 19 W/m² | - |
| 1778101377 | 18.89° C | 94% | 29.9 hPa | 0.25 mm | - | 19 W/m² | - |
| 1778099576 | 18.89° C | 94% | 29.9 hPa | 0.25 mm | - | 35 W/m² | - |
| 1778098676 | 18.33° C | 94% | 29.9 hPa | 0 mm | - | 38 W/m² | - |
| 1778093402 | 19.44° C | 89% | 29.9 hPa | 3.81 mm | - | 42 W/m² | - |
| 1778091302 | 20.56° C | 91% | 29.9 hPa | 1.27 mm | - | 54 W/m² | - |
| 1778090702 | 20.56° C | 91% | 29.9 hPa | 0.51 mm | - | 40 W/m² | - |
| 1778088904 | 21.11° C | 88% | 29.9 hPa | 0 mm | - | 36 W/m² | - |
| 1778088303 | 21.11° C | 87% | 29.9 hPa | 0 mm | - | 69 W/m² | - |
| 1778086503 | 21.11° C | 87% | 29.9 hPa | 0 mm | - | 78 W/m² | - |
| 1778082904 | 20° C | 91% | 29.9 hPa | 1.02 mm | - | 340 W/m² | - |
| 1778082603 | 19.44° C | 92% | 29.9 hPa | 1.02 mm | - | 129 W/m² | - |
| 1778082011 | 19.44° C | 92% | 29.9 hPa | 1.78 mm | - | 125 W/m² | - |
| 1778079903 | 18.89° C | 92% | 29.9 hPa | 5.08 mm | - | 40 W/m² | - |
| 1778079306 | 18.89° C | 92% | 30 hPa | 5.33 mm | - | 30 W/m² | - |
| 1778078102 | 18.89° C | 91% | 29.9 hPa | 5.59 mm | - | 10 W/m² | - |
| 1778077804 | 18.89° C | 90% | 29.9 hPa | 5.59 mm | - | 48 W/m² | - |
| 1778073003 | 20.56° C | 78% | 29.9 hPa | 0 mm | - | 8 W/m² | - |
| 1778071803 | 20.56° C | 77% | 29.9 hPa | 0 mm | - | 8 W/m² | - |
| 1778071503 | 20.56° C | 77% | 29.9 hPa | 0 mm | - | 12 W/m² | - |
| 1778070603 | 20.56° C | 77% | 29.9 hPa | 0 mm | - | 12 W/m² | - |
| 1778070003 | 20.56° C | 77% | 29.9 hPa | 0 mm | - | 8 W/m² | - |
| 1778066702 | 20.56° C | 75% | 29.9 hPa | 0 mm | - | 5 W/m² | - |
| 1778065805 | 20.56° C | 74% | 29.9 hPa | 0 mm | - | 3 W/m² | - |
* Rain latest hour (hover to see other rain measurements)
** Current wind speed in m/s (hover to see current wind gust speed)